Flugplatz Dortmund

Bericht für EDLW

vom 22.11. um 15:20 UTC

Wind 9 kt aus 180°

Sichtweite 10 km oder mehr

gute Sicht, keine Wolken < 5000 ft, keine CB, keine Wettererscheinungen (CAVOK)

Temperatur 11.0°C

Taupunkt 4.0°C

Luftfeuchtigkeit 62%

Luftdruck 1006 hPa

EDLW 221520Z 18009KT CAVOK 11/04 Q1006

Prognose für EDLW

vom 22.11. um 14:51 UTC

Zwischen 14:00 UTC und 00:00 UTC

Wind 10 kt aus 180°

Sichtweite 10 km oder mehr

keine signifikanten Wettererscheinungen

keine Wolken


Am 23.11. zwischen 00:00 und 03:00 UTC übergehend zu

Wind 15 kt aus 180° in Böen 25 kt

Sichtweite 10 km oder mehr

keine signifikanten Wettererscheinungen

keine Wolken


Am 23.11. zwischen 06:00 UTC und 12:00 UTC zeitweise

Wind 20 kt aus 210° in Böen 30 kt

TAF AMD EDLW 221451Z 2214/2312 18010KT CAVOK BECMG 2300/2303 18015G25KT TEMPO 2306/2312 21020G30KT
Impressum